sensor_id;sensor_type;location;lat;lon;timestamp;P1;durP1;ratioP1;P2;durP2;ratioP2
44197;SDS011;30157;55.512;37.764;2023-07-31T00:01:18;51.92;;;28.25;;
44197;SDS011;30157;55.512;37.764;2023-07-31T00:03:45;38.20;;;25.05;;
44197;SDS011;30157;55.512;37.764;2023-07-31T00:06:11;36.88;;;22.95;;
44197;SDS011;30157;55.512;37.764;2023-07-31T00:08:37;34.20;;;22.27;;
44197;SDS011;30157;55.512;37.764;2023-07-31T00:11:02;20.17;;;13.38;;
44197;SDS011;30157;55.512;37.764;2023-07-31T00:13:28;13.35;;;9.05;;
44197;SDS011;30157;55.512;37.764;2023-07-31T00:15:54;11.05;;;7.53;;
44197;SDS011;30157;55.512;37.764;2023-07-31T00:18:20;12.20;;;7.40;;
44197;SDS011;30157;55.512;37.764;2023-07-31T00:20:45;10.25;;;6.60;;
44197;SDS011;30157;55.512;37.764;2023-07-31T00:23:11;11.38;;;7.38;;
44197;SDS011;30157;55.512;37.764;2023-07-31T00:25:38;13.32;;;7.35;;
44197;SDS011;30157;55.512;37.764;2023-07-31T00:28:03;11.05;;;7.32;;
44197;SDS011;30157;55.512;37.764;2023-07-31T00:30:29;9.77;;;7.43;;
44197;SDS011;30157;55.512;37.764;2023-07-31T00:32:55;9.88;;;6.85;;
44197;SDS011;30157;55.512;37.764;2023-07-31T00:35:21;11.65;;;7.22;;
44197;SDS011;30157;55.512;37.764;2023-07-31T00:37:46;14.05;;;7.68;;
44197;SDS011;30157;55.512;37.764;2023-07-31T00:40:12;15.65;;;8.32;;
44197;SDS011;30157;55.512;37.764;2023-07-31T00:42:39;13.60;;;8.05;;
44197;SDS011;30157;55.512;37.764;2023-07-31T00:45:05;14.98;;;10.32;;
44197;SDS011;30157;55.512;37.764;2023-07-31T00:47:31;17.15;;;10.75;;
44197;SDS011;30157;55.512;37.764;2023-07-31T00:49:57;13.45;;;9.32;;
44197;SDS011;30157;55.512;37.764;2023-07-31T00:52:23;13.05;;;7.00;;
44197;SDS011;30157;55.512;37.764;2023-07-31T00:54:49;9.60;;;6.65;;
44197;SDS011;30157;55.512;37.764;2023-07-31T00:57:15;9.90;;;7.10;;
44197;SDS011;30157;55.512;37.764;2023-07-31T00:59:41;9.93;;;6.88;;
44197;SDS011;30157;55.512;37.764;2023-07-31T01:02:07;11.00;;;6.88;;
44197;SDS011;30157;55.512;37.764;2023-07-31T01:04:33;9.85;;;6.80;;
44197;SDS011;30157;55.512;37.764;2023-07-31T01:10:23;11.43;;;6.93;;
44197;SDS011;30157;55.512;37.764;2023-07-31T01:12:52;11.65;;;7.13;;
44197;SDS011;30157;55.512;37.764;2023-07-31T01:15:20;9.35;;;6.78;;
44197;SDS011;30157;55.512;37.764;2023-07-31T01:17:46;10.52;;;7.10;;
44197;SDS011;30157;55.512;37.764;2023-07-31T01:20:13;8.88;;;6.00;;
44197;SDS011;30157;55.512;37.764;2023-07-31T01:22:48;10.77;;;6.60;;
44197;SDS011;30157;55.512;37.764;2023-07-31T01:28:35;7.97;;;6.18;;
44197;SDS011;30157;55.512;37.764;2023-07-31T01:31:21;11.18;;;6.38;;
44197;SDS011;30157;55.512;37.764;2023-07-31T01:33:50;8.43;;;5.90;;
44197;SDS011;30157;55.512;37.764;2023-07-31T01:36:20;8.57;;;5.85;;
44197;SDS011;30157;55.512;37.764;2023-07-31T01:38:46;10.32;;;6.40;;
44197;SDS011;30157;55.512;37.764;2023-07-31T01:41:12;7.97;;;6.28;;
44197;SDS011;30157;55.512;37.764;2023-07-31T01:43:38;7.75;;;5.65;;
44197;SDS011;30157;55.512;37.764;2023-07-31T01:46:05;7.85;;;6.03;;
44197;SDS011;30157;55.512;37.764;2023-07-31T01:48:31;9.35;;;6.50;;
44197;SDS011;30157;55.512;37.764;2023-07-31T01:51:01;9.27;;;5.93;;
44197;SDS011;30157;55.512;37.764;2023-07-31T01:53:28;8.40;;;5.80;;
44197;SDS011;30157;55.512;37.764;2023-07-31T01:55:54;10.18;;;6.03;;
44197;SDS011;30157;55.512;37.764;2023-07-31T01:58:20;10.70;;;5.80;;
44197;SDS011;30157;55.512;37.764;2023-07-31T02:00:46;8.55;;;5.60;;
44197;SDS011;30157;55.512;37.764;2023-07-31T02:03:11;8.30;;;5.63;;
44197;SDS011;30157;55.512;37.764;2023-07-31T02:05:43;7.85;;;5.97;;
44197;SDS011;30157;55.512;37.764;2023-07-31T02:08:10;9.90;;;6.13;;
44197;SDS011;30157;55.512;37.764;2023-07-31T02:10:36;7.10;;;6.00;;
44197;SDS011;30157;55.512;37.764;2023-07-31T02:13:02;7.70;;;5.38;;
44197;SDS011;30157;55.512;37.764;2023-07-31T02:15:30;7.97;;;5.97;;
44197;SDS011;30157;55.512;37.764;2023-07-31T02:17:56;8.73;;;5.68;;
44197;SDS011;30157;55.512;37.764;2023-07-31T02:20:22;8.07;;;5.60;;
44197;SDS011;30157;55.512;37.764;2023-07-31T02:22:47;8.13;;;5.55;;
44197;SDS011;30157;55.512;37.764;2023-07-31T02:25:13;7.85;;;5.60;;
44197;SDS011;30157;55.512;37.764;2023-07-31T02:27:39;10.45;;;5.63;;
44197;SDS011;30157;55.512;37.764;2023-07-31T02:30:05;8.63;;;5.38;;
44197;SDS011;30157;55.512;37.764;2023-07-31T02:32:32;7.70;;;5.45;;
44197;SDS011;30157;55.512;37.764;2023-07-31T02:34:57;8.23;;;5.47;;
44197;SDS011;30157;55.512;37.764;2023-07-31T02:37:25;10.40;;;5.88;;
44197;SDS011;30157;55.512;37.764;2023-07-31T02:39:51;9.18;;;5.45;;
44197;SDS011;30157;55.512;37.764;2023-07-31T02:42:17;7.97;;;5.50;;
44197;SDS011;30157;55.512;37.764;2023-07-31T02:44:43;9.02;;;5.35;;
44197;SDS011;30157;55.512;37.764;2023-07-31T02:47:08;7.45;;;5.25;;
44197;SDS011;30157;55.512;37.764;2023-07-31T02:49:34;7.55;;;5.25;;
44197;SDS011;30157;55.512;37.764;2023-07-31T02:52:00;7.68;;;5.25;;
44197;SDS011;30157;55.512;37.764;2023-07-31T02:54:26;8.13;;;5.15;;
44197;SDS011;30157;55.512;37.764;2023-07-31T02:56:51;8.93;;;5.47;;
44197;SDS011;30157;55.512;37.764;2023-07-31T02:59:17;9.00;;;5.32;;
44197;SDS011;30157;55.512;37.764;2023-07-31T03:01:43;8.57;;;5.57;;
44197;SDS011;30157;55.512;37.764;2023-07-31T03:04:10;8.20;;;5.07;;
44197;SDS011;30157;55.512;37.764;2023-07-31T03:06:36;7.93;;;5.20;;
44197;SDS011;30157;55.512;37.764;2023-07-31T03:09:01;8.25;;;4.78;;
44197;SDS011;30157;55.512;37.764;2023-07-31T03:11:27;7.75;;;4.80;;
44197;SDS011;30157;55.512;37.764;2023-07-31T03:13:53;7.38;;;4.65;;
44197;SDS011;30157;55.512;37.764;2023-07-31T03:16:19;6.38;;;4.30;;
44197;SDS011;30157;55.512;37.764;2023-07-31T03:18:45;6.53;;;4.43;;
44197;SDS011;30157;55.512;37.764;2023-07-31T03:21:11;5.60;;;4.32;;
44197;SDS011;30157;55.512;37.764;2023-07-31T03:23:37;5.90;;;4.28;;
44197;SDS011;30157;55.512;37.764;2023-07-31T03:26:06;5.85;;;4.30;;
44197;SDS011;30157;55.512;37.764;2023-07-31T03:28:33;7.78;;;4.38;;
44197;SDS011;30157;55.512;37.764;2023-07-31T03:30:58;7.40;;;4.35;;
44197;SDS011;30157;55.512;37.764;2023-07-31T03:33:25;5.70;;;3.90;;
44197;SDS011;30157;55.512;37.764;2023-07-31T03:35:52;6.18;;;4.00;;
44197;SDS011;30157;55.512;37.764;2023-07-31T03:38:19;8.63;;;4.55;;
44197;SDS011;30157;55.512;37.764;2023-07-31T03:40:45;6.60;;;3.90;;
44197;SDS011;30157;55.512;37.764;2023-07-31T03:43:11;6.35;;;3.92;;
44197;SDS011;30157;55.512;37.764;2023-07-31T03:45:39;5.38;;;4.20;;
44197;SDS011;30157;55.512;37.764;2023-07-31T03:48:05;5.35;;;3.97;;
44197;SDS011;30157;55.512;37.764;2023-07-31T03:50:31;7.70;;;4.75;;
44197;SDS011;30157;55.512;37.764;2023-07-31T03:52:56;7.70;;;4.10;;
44197;SDS011;30157;55.512;37.764;2023-07-31T03:55:22;7.40;;;4.10;;
44197;SDS011;30157;55.512;37.764;2023-07-31T03:57:48;6.78;;;4.25;;
44197;SDS011;30157;55.512;37.764;2023-07-31T04:00:14;6.90;;;4.68;;
44197;SDS011;30157;55.512;37.764;2023-07-31T04:02:41;7.60;;;4.38;;
44197;SDS011;30157;55.512;37.764;2023-07-31T04:05:07;7.95;;;4.13;;
44197;SDS011;30157;55.512;37.764;2023-07-31T04:07:33;6.22;;;4.07;;
44197;SDS011;30157;55.512;37.764;2023-07-31T04:09:59;8.32;;;4.30;;
44197;SDS011;30157;55.512;37.764;2023-07-31T04:12:25;9.63;;;3.97;;
44197;SDS011;30157;55.512;37.764;2023-07-31T04:14:51;6.90;;;4.18;;
44197;SDS011;30157;55.512;37.764;2023-07-31T04:17:17;5.82;;;4.03;;
44197;SDS011;30157;55.512;37.764;2023-07-31T04:19:43;6.32;;;4.32;;
44197;SDS011;30157;55.512;37.764;2023-07-31T04:22:09;5.95;;;3.80;;
44197;SDS011;30157;55.512;37.764;2023-07-31T04:24:35;5.75;;;3.88;;
44197;SDS011;30157;55.512;37.764;2023-07-31T04:27:01;6.25;;;3.72;;
44197;SDS011;30157;55.512;37.764;2023-07-31T04:29:27;6.68;;;4.00;;
44197;SDS011;30157;55.512;37.764;2023-07-31T04:31:52;7.13;;;3.80;;
44197;SDS011;30157;55.512;37.764;2023-07-31T04:34:18;5.70;;;3.78;;
44197;SDS011;30157;55.512;37.764;2023-07-31T04:36:44;6.35;;;3.88;;
44197;SDS011;30157;55.512;37.764;2023-07-31T04:39:09;8.75;;;3.65;;
44197;SDS011;30157;55.512;37.764;2023-07-31T04:41:35;4.63;;;3.60;;
44197;SDS011;30157;55.512;37.764;2023-07-31T04:44:01;6.43;;;4.05;;
44197;SDS011;30157;55.512;37.764;2023-07-31T04:46:27;4.60;;;3.60;;
44197;SDS011;30157;55.512;37.764;2023-07-31T04:48:53;14.32;;;4.85;;
44197;SDS011;30157;55.512;37.764;2023-07-31T04:51:18;13.20;;;5.13;;
44197;SDS011;30157;55.512;37.764;2023-07-31T04:53:44;12.85;;;4.95;;
44197;SDS011;30157;55.512;37.764;2023-07-31T04:56:10;8.77;;;3.95;;
44197;SDS011;30157;55.512;37.764;2023-07-31T04:58:35;7.15;;;3.67;;
44197;SDS011;30157;55.512;37.764;2023-07-31T05:01:01;6.78;;;3.50;;
44197;SDS011;30157;55.512;37.764;2023-07-31T05:03:27;11.52;;;4.20;;
44197;SDS011;30157;55.512;37.764;2023-07-31T05:05:52;6.53;;;3.70;;
44197;SDS011;30157;55.512;37.764;2023-07-31T05:08:18;4.63;;;3.33;;
44197;SDS011;30157;55.512;37.764;2023-07-31T05:10:44;3.72;;;2.90;;
44197;SDS011;30157;55.512;37.764;2023-07-31T05:13:10;12.70;;;3.60;;
44197;SDS011;30157;55.512;37.764;2023-07-31T05:15:35;38.00;;;6.15;;
44197;SDS011;30157;55.512;37.764;2023-07-31T05:18:01;24.33;;;4.75;;
44197;SDS011;30157;55.512;37.764;2023-07-31T05:20:27;22.50;;;4.78;;
44197;SDS011;30157;55.512;37.764;2023-07-31T05:22:53;24.00;;;5.93;;
44197;SDS011;30157;55.512;37.764;2023-07-31T05:25:19;29.05;;;6.00;;
44197;SDS011;30157;55.512;37.764;2023-07-31T05:27:45;23.15;;;5.90;;
44197;SDS011;30157;55.512;37.764;2023-07-31T05:30:11;8.48;;;3.50;;
44197;SDS011;30157;55.512;37.764;2023-07-31T05:32:36;21.70;;;4.97;;
44197;SDS011;30157;55.512;37.764;2023-07-31T05:35:02;17.15;;;4.57;;
44197;SDS011;30157;55.512;37.764;2023-07-31T05:37:30;4.60;;;3.03;;
44197;SDS011;30157;55.512;37.764;2023-07-31T05:39:56;19.98;;;4.30;;
44197;SDS011;30157;55.512;37.764;2023-07-31T05:42:22;7.30;;;3.00;;
44197;SDS011;30157;55.512;37.764;2023-07-31T05:44:48;8.40;;;3.47;;
44197;SDS011;30157;55.512;37.764;2023-07-31T05:47:13;4.88;;;3.28;;
44197;SDS011;30157;55.512;37.764;2023-07-31T05:49:39;18.50;;;4.20;;
44197;SDS011;30157;55.512;37.764;2023-07-31T05:52:05;56.05;;;8.23;;
44197;SDS011;30157;55.512;37.764;2023-07-31T05:54:32;59.95;;;11.50;;
44197;SDS011;30157;55.512;37.764;2023-07-31T05:56:59;7.38;;;2.90;;
44197;SDS011;30157;55.512;37.764;2023-07-31T05:59:25;4.00;;;2.70;;
44197;SDS011;30157;55.512;37.764;2023-07-31T06:01:51;3.80;;;2.50;;
44197;SDS011;30157;55.512;37.764;2023-07-31T06:04:17;7.45;;;2.80;;
44197;SDS011;30157;55.512;37.764;2023-07-31T06:06:43;5.13;;;2.85;;
44197;SDS011;30157;55.512;37.764;2023-07-31T06:09:08;4.18;;;2.75;;
44197;SDS011;30157;55.512;37.764;2023-07-31T06:11:34;8.43;;;3.33;;
44197;SDS011;30157;55.512;37.764;2023-07-31T06:14:00;5.00;;;2.60;;
44197;SDS011;30157;55.512;37.764;2023-07-31T06:16:26;3.47;;;2.58;;
44197;SDS011;30157;55.512;37.764;2023-07-31T06:18:52;3.42;;;2.53;;
44197;SDS011;30157;55.512;37.764;2023-07-31T06:21:18;6.38;;;2.22;;
44197;SDS011;30157;55.512;37.764;2023-07-31T06:23:44;3.63;;;2.15;;
44197;SDS011;30157;55.512;37.764;2023-07-31T06:26:09;4.95;;;2.20;;
44197;SDS011;30157;55.512;37.764;2023-07-31T06:28:35;6.28;;;2.78;;
44197;SDS011;30157;55.512;37.764;2023-07-31T06:31:01;4.07;;;2.63;;
44197;SDS011;30157;55.512;37.764;2023-07-31T06:33:27;4.05;;;2.30;;
44197;SDS011;30157;55.512;37.764;2023-07-31T06:35:53;4.43;;;2.58;;
44197;SDS011;30157;55.512;37.764;2023-07-31T06:38:22;6.57;;;2.80;;
44197;SDS011;30157;55.512;37.764;2023-07-31T06:40:50;3.33;;;1.98;;
44197;SDS011;30157;55.512;37.764;2023-07-31T06:43:16;3.05;;;2.03;;
44197;SDS011;30157;55.512;37.764;2023-07-31T06:45:41;2.45;;;1.83;;
44197;SDS011;30157;55.512;37.764;2023-07-31T06:48:07;31.48;;;5.05;;
44197;SDS011;30157;55.512;37.764;2023-07-31T06:50:33;30.15;;;4.45;;
44197;SDS011;30157;55.512;37.764;2023-07-31T06:52:58;10.00;;;2.50;;
44197;SDS011;30157;55.512;37.764;2023-07-31T06:55:24;9.00;;;2.55;;
44197;SDS011;30157;55.512;37.764;2023-07-31T06:57:52;14.55;;;3.03;;
44197;SDS011;30157;55.512;37.764;2023-07-31T07:00:20;8.27;;;1.63;;
44197;SDS011;30157;55.512;37.764;2023-07-31T07:02:47;2.35;;;1.50;;
44197;SDS011;30157;55.512;37.764;2023-07-31T07:05:14;4.85;;;1.42;;
44197;SDS011;30157;55.512;37.764;2023-07-31T07:07:40;3.50;;;2.00;;
44197;SDS011;30157;55.512;37.764;2023-07-31T07:10:06;3.90;;;1.70;;
44197;SDS011;30157;55.512;37.764;2023-07-31T07:12:33;3.20;;;1.70;;
44197;SDS011;30157;55.512;37.764;2023-07-31T07:14:59;4.32;;;1.70;;
44197;SDS011;30157;55.512;37.764;2023-07-31T07:17:28;2.03;;;1.30;;
44197;SDS011;30157;55.512;37.764;2023-07-31T07:19:57;2.17;;;1.60;;
44197;SDS011;30157;55.512;37.764;2023-07-31T07:22:27;1.70;;;1.27;;
44197;SDS011;30157;55.512;37.764;2023-07-31T07:24:53;2.63;;;1.40;;
44197;SDS011;30157;55.512;37.764;2023-07-31T07:27:19;2.38;;;1.50;;
44197;SDS011;30157;55.512;37.764;2023-07-31T07:29:45;2.13;;;1.38;;
44197;SDS011;30157;55.512;37.764;2023-07-31T07:32:12;1.42;;;1.15;;
44197;SDS011;30157;55.512;37.764;2023-07-31T07:34:38;4.38;;;1.42;;
44197;SDS011;30157;55.512;37.764;2023-07-31T07:37:04;3.35;;;1.30;;
44197;SDS011;30157;55.512;37.764;2023-07-31T07:39:30;2.35;;;1.45;;
44197;SDS011;30157;55.512;37.764;2023-07-31T07:41:55;3.38;;;1.40;;
44197;SDS011;30157;55.512;37.764;2023-07-31T07:44:21;2.30;;;1.30;;
44197;SDS011;30157;55.512;37.764;2023-07-31T07:46:47;2.60;;;1.55;;
44197;SDS011;30157;55.512;37.764;2023-07-31T07:49:12;2.95;;;1.23;;
44197;SDS011;30157;55.512;37.764;2023-07-31T07:51:38;2.17;;;1.23;;
44197;SDS011;30157;55.512;37.764;2023-07-31T07:54:04;2.92;;;1.40;;
44197;SDS011;30157;55.512;37.764;2023-07-31T07:56:29;1.98;;;1.40;;
44197;SDS011;30157;55.512;37.764;2023-07-31T07:58:55;1.70;;;1.10;;
44197;SDS011;30157;55.512;37.764;2023-07-31T08:01:21;3.17;;;1.60;;
44197;SDS011;30157;55.512;37.764;2023-07-31T08:03:47;2.25;;;1.50;;
44197;SDS011;30157;55.512;37.764;2023-07-31T08:06:14;3.03;;;1.38;;
44197;SDS011;30157;55.512;37.764;2023-07-31T08:08:40;2.78;;;1.30;;
44197;SDS011;30157;55.512;37.764;2023-07-31T08:11:05;3.38;;;1.40;;
44197;SDS011;30157;55.512;37.764;2023-07-31T08:13:31;1.65;;;1.33;;
44197;SDS011;30157;55.512;37.764;2023-07-31T08:15:57;2.20;;;1.20;;
44197;SDS011;30157;55.512;37.764;2023-07-31T08:18:24;2.17;;;1.25;;
44197;SDS011;30157;55.512;37.764;2023-07-31T08:20:49;2.92;;;1.27;;
44197;SDS011;30157;55.512;37.764;2023-07-31T08:23:15;1.50;;;1.20;;
44197;SDS011;30157;55.512;37.764;2023-07-31T08:25:41;2.03;;;1.27;;
44197;SDS011;30157;55.512;37.764;2023-07-31T08:28:07;1.77;;;1.27;;
44197;SDS011;30157;55.512;37.764;2023-07-31T08:30:33;2.90;;;1.52;;
44197;SDS011;30157;55.512;37.764;2023-07-31T08:32:59;3.90;;;1.70;;
44197;SDS011;30157;55.512;37.764;2023-07-31T08:35:26;4.65;;;1.50;;
44197;SDS011;30157;55.512;37.764;2023-07-31T08:37:53;3.63;;;1.42;;
44197;SDS011;30157;55.512;37.764;2023-07-31T08:40:20;8.48;;;2.53;;
44197;SDS011;30157;55.512;37.764;2023-07-31T08:42:47;3.08;;;1.23;;
44197;SDS011;30157;55.512;37.764;2023-07-31T08:45:15;5.20;;;1.85;;
44197;SDS011;30157;55.512;37.764;2023-07-31T08:47:47;5.22;;;1.65;;
44197;SDS011;30157;55.512;37.764;2023-07-31T08:50:15;2.45;;;1.60;;
44197;SDS011;30157;55.512;37.764;2023-07-31T08:52:42;1.90;;;1.10;;
44197;SDS011;30157;55.512;37.764;2023-07-31T08:55:08;2.95;;;1.50;;
44197;SDS011;30157;55.512;37.764;2023-07-31T08:57:35;2.17;;;1.60;;
44197;SDS011;30157;55.512;37.764;2023-07-31T09:00:02;3.45;;;1.50;;
44197;SDS011;30157;55.512;37.764;2023-07-31T09:02:52;8.52;;;1.50;;
44197;SDS011;30157;55.512;37.764;2023-07-31T09:05:21;4.10;;;1.63;;
44197;SDS011;30157;55.512;37.764;2023-07-31T09:07:49;4.28;;;2.60;;
44197;SDS011;30157;55.512;37.764;2023-07-31T09:10:15;7.97;;;5.45;;
44197;SDS011;30157;55.512;37.764;2023-07-31T09:12:41;8.40;;;3.03;;
44197;SDS011;30157;55.512;37.764;2023-07-31T09:15:08;4.82;;;3.00;;
44197;SDS011;30157;55.512;37.764;2023-07-31T09:17:35;3.30;;;1.85;;
44197;SDS011;30157;55.512;37.764;2023-07-31T09:20:21;1.90;;;1.58;;
44197;SDS011;30157;55.512;37.764;2023-07-31T09:22:47;2.53;;;1.40;;
44197;SDS011;30157;55.512;37.764;2023-07-31T09:25:17;3.10;;;1.45;;
44197;SDS011;30157;55.512;37.764;2023-07-31T09:30:19;2.20;;;1.40;;
44197;SDS011;30157;55.512;37.764;2023-07-31T09:32:46;2.38;;;1.38;;
44197;SDS011;30157;55.512;37.764;2023-07-31T09:35:14;1.40;;;1.30;;
44197;SDS011;30157;55.512;37.764;2023-07-31T09:37:52;1.70;;;1.40;;
44197;SDS011;30157;55.512;37.764;2023-07-31T09:40:25;2.95;;;1.95;;
44197;SDS011;30157;55.512;37.764;2023-07-31T09:42:56;2.25;;;1.45;;
44197;SDS011;30157;55.512;37.764;2023-07-31T09:45:24;3.33;;;1.80;;
44197;SDS011;30157;55.512;37.764;2023-07-31T09:47:51;4.63;;;2.35;;
44197;SDS011;30157;55.512;37.764;2023-07-31T09:50:19;2.95;;;1.50;;
44197;SDS011;30157;55.512;37.764;2023-07-31T09:52:45;3.92;;;1.70;;
44197;SDS011;30157;55.512;37.764;2023-07-31T09:55:11;2.88;;;1.50;;
44197;SDS011;30157;55.512;37.764;2023-07-31T09:57:39;3.25;;;2.10;;
44197;SDS011;30157;55.512;37.764;2023-07-31T10:00:06;2.58;;;1.67;;
44197;SDS011;30157;55.512;37.764;2023-07-31T10:02:39;3.13;;;1.83;;
44197;SDS011;30157;55.512;37.764;2023-07-31T10:05:06;1.98;;;1.50;;
44197;SDS011;30157;55.512;37.764;2023-07-31T10:07:38;4.28;;;1.50;;
44197;SDS011;30157;55.512;37.764;2023-07-31T10:12:33;3.25;;;1.40;;
44197;SDS011;30157;55.512;37.764;2023-07-31T10:15:01;1.73;;;1.58;;
44197;SDS011;30157;55.512;37.764;2023-07-31T10:17:32;2.10;;;1.50;;
44197;SDS011;30157;55.512;37.764;2023-07-31T10:20:00;2.10;;;1.58;;
44197;SDS011;30157;55.512;37.764;2023-07-31T10:22:32;3.20;;;1.77;;
44197;SDS011;30157;55.512;37.764;2023-07-31T10:24:59;4.35;;;1.60;;
44197;SDS011;30157;55.512;37.764;2023-07-31T10:27:26;2.80;;;1.50;;
44197;SDS011;30157;55.512;37.764;2023-07-31T10:29:52;2.85;;;1.50;;
44197;SDS011;30157;55.512;37.764;2023-07-31T10:32:21;1.80;;;1.40;;
44197;SDS011;30157;55.512;37.764;2023-07-31T10:34:48;2.05;;;1.85;;
44197;SDS011;30157;55.512;37.764;2023-07-31T10:37:58;1.80;;;1.65;;
44197;SDS011;30157;55.512;37.764;2023-07-31T10:40:11;2.40;;;1.50;;
44197;SDS011;30157;55.512;37.764;2023-07-31T10:45:13;5.55;;;2.60;;
44197;SDS011;30157;55.512;37.764;2023-07-31T10:47:42;3.50;;;1.90;;
44197;SDS011;30157;55.512;37.764;2023-07-31T10:50:19;2.78;;;1.83;;
44197;SDS011;30157;55.512;37.764;2023-07-31T10:52:47;3.92;;;1.80;;
44197;SDS011;30157;55.512;37.764;2023-07-31T10:55:15;3.85;;;1.90;;
44197;SDS011;30157;55.512;37.764;2023-07-31T10:57:47;3.92;;;1.73;;
44197;SDS011;30157;55.512;37.764;2023-07-31T11:00:25;4.03;;;2.05;;
44197;SDS011;30157;55.512;37.764;2023-07-31T11:03:04;3.58;;;2.00;;
44197;SDS011;30157;55.512;37.764;2023-07-31T11:08:32;3.15;;;2.00;;
44197;SDS011;30157;55.512;37.764;2023-07-31T11:13:40;2.97;;;1.77;;
44197;SDS011;30157;55.512;37.764;2023-07-31T11:16:10;2.60;;;2.00;;
44197;SDS011;30157;55.512;37.764;2023-07-31T11:18:40;4.00;;;2.00;;
44197;SDS011;30157;55.512;37.764;2023-07-31T11:21:28;3.50;;;1.90;;
44197;SDS011;30157;55.512;37.764;2023-07-31T11:23:56;3.05;;;1.80;;
44197;SDS011;30157;55.512;37.764;2023-07-31T11:26:23;3.83;;;2.08;;
44197;SDS011;30157;55.512;37.764;2023-07-31T11:28:50;3.25;;;2.10;;
44197;SDS011;30157;55.512;37.764;2023-07-31T11:31:16;6.07;;;2.10;;
44197;SDS011;30157;55.512;37.764;2023-07-31T11:33:46;15.55;;;3.92;;
44197;SDS011;30157;55.512;37.764;2023-07-31T11:36:15;7.75;;;2.70;;
44197;SDS011;30157;55.512;37.764;2023-07-31T11:38:44;5.28;;;2.30;;
44197;SDS011;30157;55.512;37.764;2023-07-31T11:41:10;7.65;;;2.33;;
44197;SDS011;30157;55.512;37.764;2023-07-31T11:43:38;8.15;;;2.08;;
44197;SDS011;30157;55.512;37.764;2023-07-31T11:46:04;3.20;;;1.80;;
44197;SDS011;30157;55.512;37.764;2023-07-31T11:48:36;2.65;;;1.73;;
44197;SDS011;30157;55.512;37.764;2023-07-31T11:51:07;2.88;;;2.03;;
44197;SDS011;30157;55.512;37.764;2023-07-31T11:56:04;3.45;;;1.77;;
44197;SDS011;30157;55.512;37.764;2023-07-31T11:58:32;2.80;;;1.90;;
44197;SDS011;30157;55.512;37.764;2023-07-31T12:00:59;3.30;;;1.98;;
44197;SDS011;30157;55.512;37.764;2023-07-31T12:03:26;4.03;;;2.00;;
44197;SDS011;30157;55.512;37.764;2023-07-31T12:05:53;2.95;;;1.63;;
44197;SDS011;30157;55.512;37.764;2023-07-31T12:08:22;4.18;;;2.00;;
44197;SDS011;30157;55.512;37.764;2023-07-31T12:10:52;3.03;;;1.98;;
44197;SDS011;30157;55.512;37.764;2023-07-31T12:13:20;3.78;;;2.10;;
44197;SDS011;30157;55.512;37.764;2023-07-31T12:15:48;2.95;;;1.95;;
44197;SDS011;30157;55.512;37.764;2023-07-31T12:18:19;3.20;;;2.17;;
44197;SDS011;30157;55.512;37.764;2023-07-31T12:20:49;3.92;;;2.00;;
44197;SDS011;30157;55.512;37.764;2023-07-31T12:23:20;6.65;;;2.72;;
44197;SDS011;30157;55.512;37.764;2023-07-31T12:28:27;2.70;;;2.05;;
44197;SDS011;30157;55.512;37.764;2023-07-31T12:30:56;2.65;;;1.92;;
44197;SDS011;30157;55.512;37.764;2023-07-31T12:33:32;3.17;;;1.90;;
44197;SDS011;30157;55.512;37.764;2023-07-31T12:36:02;3.75;;;2.03;;
44197;SDS011;30157;55.512;37.764;2023-07-31T12:38:29;2.35;;;2.10;;
44197;SDS011;30157;55.512;37.764;2023-07-31T12:40:56;4.18;;;2.47;;
44197;SDS011;30157;55.512;37.764;2023-07-31T12:43:22;3.05;;;1.90;;
44197;SDS011;30157;55.512;37.764;2023-07-31T12:45:48;5.22;;;2.80;;
44197;SDS011;30157;55.512;37.764;2023-07-31T12:48:14;4.40;;;2.15;;
44197;SDS011;30157;55.512;37.764;2023-07-31T12:50:40;2.50;;;1.65;;
44197;SDS011;30157;55.512;37.764;2023-07-31T12:53:05;4.50;;;2.47;;
44197;SDS011;30157;55.512;37.764;2023-07-31T12:55:32;3.97;;;2.47;;
44197;SDS011;30157;55.512;37.764;2023-07-31T12:58:03;3.33;;;1.80;;
44197;SDS011;30157;55.512;37.764;2023-07-31T13:00:29;2.83;;;2.08;;
44197;SDS011;30157;55.512;37.764;2023-07-31T13:02:55;3.42;;;1.90;;
44197;SDS011;30157;55.512;37.764;2023-07-31T13:05:21;2.30;;;2.10;;
44197;SDS011;30157;55.512;37.764;2023-07-31T13:07:47;2.40;;;1.98;;
44197;SDS011;30157;55.512;37.764;2023-07-31T13:10:13;3.13;;;1.80;;
44197;SDS011;30157;55.512;37.764;2023-07-31T13:12:39;2.40;;;1.80;;
44197;SDS011;30157;55.512;37.764;2023-07-31T13:15:06;2.75;;;1.95;;
44197;SDS011;30157;55.512;37.764;2023-07-31T13:17:32;4.40;;;2.90;;
44197;SDS011;30157;55.512;37.764;2023-07-31T13:20:01;3.28;;;2.80;;
44197;SDS011;30157;55.512;37.764;2023-07-31T13:22:29;3.53;;;2.80;;
44197;SDS011;30157;55.512;37.764;2023-07-31T13:24:55;7.03;;;5.00;;
44197;SDS011;30157;55.512;37.764;2023-07-31T13:27:21;11.52;;;8.82;;
44197;SDS011;30157;55.512;37.764;2023-07-31T13:29:47;7.55;;;5.65;;
44197;SDS011;30157;55.512;37.764;2023-07-31T13:32:15;8.93;;;7.22;;
44197;SDS011;30157;55.512;37.764;2023-07-31T13:34:44;7.70;;;4.95;;
44197;SDS011;30157;55.512;37.764;2023-07-31T13:37:11;4.13;;;2.80;;
44197;SDS011;30157;55.512;37.764;2023-07-31T13:39:37;17.38;;;11.90;;
44197;SDS011;30157;55.512;37.764;2023-07-31T13:42:03;16.83;;;12.40;;
44197;SDS011;30157;55.512;37.764;2023-07-31T13:44:32;6.95;;;5.40;;
44197;SDS011;30157;55.512;37.764;2023-07-31T13:46:59;6.68;;;2.97;;
44197;SDS011;30157;55.512;37.764;2023-07-31T13:49:25;3.70;;;2.80;;
44197;SDS011;30157;55.512;37.764;2023-07-31T13:51:51;8.23;;;5.82;;
44197;SDS011;30157;55.512;37.764;2023-07-31T13:54:17;3.92;;;3.45;;
44197;SDS011;30157;55.512;37.764;2023-07-31T13:56:43;6.75;;;3.10;;
44197;SDS011;30157;55.512;37.764;2023-07-31T13:59:09;4.03;;;2.80;;
44197;SDS011;30157;55.512;37.764;2023-07-31T14:01:35;4.32;;;2.75;;
44197;SDS011;30157;55.512;37.764;2023-07-31T14:04:01;4.20;;;2.20;;
44197;SDS011;30157;55.512;37.764;2023-07-31T14:06:30;4.95;;;2.45;;
44197;SDS011;30157;55.512;37.764;2023-07-31T14:08:56;3.00;;;2.47;;
44197;SDS011;30157;55.512;37.764;2023-07-31T14:11:22;5.20;;;3.13;;
44197;SDS011;30157;55.512;37.764;2023-07-31T14:13:49;4.82;;;2.90;;
44197;SDS011;30157;55.512;37.764;2023-07-31T14:16:15;3.38;;;2.40;;
44197;SDS011;30157;55.512;37.764;2023-07-31T14:18:41;5.38;;;3.13;;
44197;SDS011;30157;55.512;37.764;2023-07-31T14:21:07;4.20;;;2.70;;
44197;SDS011;30157;55.512;37.764;2023-07-31T14:23:33;5.47;;;2.80;;
44197;SDS011;30157;55.512;37.764;2023-07-31T14:25:59;7.63;;;3.40;;
44197;SDS011;30157;55.512;37.764;2023-07-31T14:28:25;5.60;;;3.38;;
44197;SDS011;30157;55.512;37.764;2023-07-31T14:30:51;4.30;;;3.10;;
44197;SDS011;30157;55.512;37.764;2023-07-31T14:33:17;8.35;;;5.90;;
44197;SDS011;30157;55.512;37.764;2023-07-31T14:35:43;9.35;;;7.43;;
44197;SDS011;30157;55.512;37.764;2023-07-31T14:38:08;8.65;;;6.53;;
44197;SDS011;30157;55.512;37.764;2023-07-31T14:40:34;8.57;;;6.38;;
44197;SDS011;30157;55.512;37.764;2023-07-31T14:43:01;5.45;;;3.65;;
44197;SDS011;30157;55.512;37.764;2023-07-31T14:45:30;5.13;;;3.40;;
44197;SDS011;30157;55.512;37.764;2023-07-31T14:47:55;8.45;;;4.43;;
44197;SDS011;30157;55.512;37.764;2023-07-31T14:50:21;11.32;;;6.28;;
44197;SDS011;30157;55.512;37.764;2023-07-31T14:52:48;7.70;;;5.30;;
44197;SDS011;30157;55.512;37.764;2023-07-31T14:55:14;7.38;;;4.90;;